createdAt,value
2023-03-14T00:00:57.051Z,95551.88
2023-03-14T00:01:59.680Z,95565.50
2023-03-14T00:03:01.315Z,95567.44
2023-03-14T00:04:06.050Z,95562.78
2023-03-14T00:05:08.799Z,95559.66
2023-03-14T00:06:11.747Z,95562.38
2023-03-14T00:07:15.926Z,95546.81
2023-03-14T00:08:17.546Z,95535.91
2023-03-14T00:09:20.143Z,95544.47
2023-03-14T00:10:21.937Z,95540.97
2023-03-14T00:11:24.737Z,95542.16
2023-03-14T00:12:26.358Z,95536.31
2023-03-14T00:13:28.948Z,95542.91
2023-03-14T00:14:30.575Z,95529.72
2023-03-14T00:15:34.321Z,95538.66
2023-03-14T00:16:36.065Z,95560.03
2023-03-14T00:17:38.730Z,95571.31
2023-03-14T00:18:40.478Z,95581.06
2023-03-14T00:19:43.073Z,95572.09
2023-03-14T00:20:45.671Z,95560.03
2023-03-14T00:21:47.447Z,95564.31
2023-03-14T00:22:51.367Z,95564.31
2023-03-14T00:23:54.104Z,95556.94
2023-03-14T00:24:55.726Z,95568.59
2023-03-14T00:26:00.729Z,95561.22
2023-03-14T00:27:02.351Z,95560.81
2023-03-14T00:28:05.411Z,95573.25
2023-03-14T00:29:07.032Z,95564.72
2023-03-14T00:30:10.808Z,95607.09
2023-03-14T00:31:13.402Z,95565.50
2023-03-14T00:32:16.033Z,95580.25
2023-03-14T00:33:17.651Z,95564.31
2023-03-14T00:34:20.240Z,95572.50
2023-03-14T00:35:21.866Z,95588.41
2023-03-14T00:36:24.559Z,95599.69
2023-03-14T00:37:26.177Z,95590.38
2023-03-14T00:38:30.100Z,95591.16
2023-03-14T00:39:31.726Z,95584.56
2023-03-14T00:40:34.327Z,95596.19
2023-03-14T00:41:35.946Z,95595.44
2023-03-14T00:42:38.548Z,95618.38
2023-03-14T00:43:40.231Z,95565.91
2023-03-14T00:44:42.806Z,95557.34
2023-03-14T00:45:44.570Z,95549.94
2023-03-14T00:46:47.157Z,95546.06
2023-03-14T00:47:48.808Z,95549.94
2023-03-14T00:48:51.413Z,95553.84
2023-03-14T00:49:53.034Z,95576.78
2023-03-14T00:50:55.653Z,95573.66
2023-03-14T00:51:57.262Z,95571.69
2023-03-14T00:52:59.922Z,95560.44
2023-03-14T00:54:02.893Z,95542.16
2023-03-14T00:55:06.294Z,95554.19
2023-03-14T00:56:09.809Z,95532.44
2023-03-14T00:57:12.395Z,95539.06
2023-03-14T00:58:15.108Z,95522.34
2023-03-14T00:59:17.801Z,95514.94
2023-03-14T01:00:19.518Z,95509.50
2023-03-14T01:01:22.169Z,95515.34
2023-03-14T01:02:23.833Z,95508.72
2023-03-14T01:03:28.470Z,95518.06
2023-03-14T01:04:31.312Z,95521.16
2023-03-14T01:05:33.951Z,95523.50
2023-03-14T01:06:35.596Z,95510.28
2023-03-14T01:07:38.474Z,95506.00
2023-03-14T01:08:40.093Z,95515.72
2023-03-14T01:09:44.023Z,95525.84
2023-03-14T01:10:45.635Z,95524.28
2023-03-14T01:11:48.221Z,95523.13
2023-03-14T01:12:49.911Z,95550.28
2023-03-14T01:13:52.579Z,95556.41
2023-03-14T01:14:54.179Z,95505.06
2023-03-14T01:15:56.792Z,95539.59
2023-03-14T01:17:01.720Z,95525.22
2023-03-14T01:18:04.517Z,95515.91
2023-03-14T01:19:06.121Z,95500.75
2023-03-14T01:20:10.773Z,95507.31
2023-03-14T01:21:13.499Z,95492.97
2023-03-14T01:22:16.074Z,95476.72
2023-03-14T01:23:17.693Z,95493.03
2023-03-14T01:24:20.294Z,95491.50
2023-03-14T01:25:23.297Z,95497.72
2023-03-14T01:26:27.830Z,95503.56
2023-03-14T01:27:29.417Z,95508.22
2023-03-14T01:28:32.052Z,95497.75
2023-03-14T01:29:34.671Z,95527.66
2023-03-14T01:30:36.327Z,95516.78
2023-03-14T01:31:39.003Z,95526.88
2023-03-14T01:32:40.865Z,95518.31
2023-03-14T01:33:43.467Z,95518.31
2023-03-14T01:34:45.067Z,95504.38
2023-03-14T01:35:47.677Z,95523.00
2023-03-14T01:36:49.368Z,95536.59
2023-03-14T01:37:51.949Z,95522.22
2023-03-14T01:38:53.849Z,95500.47
2023-03-14T01:39:56.443Z,95508.97
2023-03-14T01:40:59.406Z,95509.38
2023-03-14T01:42:02.283Z,95510.94
2023-03-14T01:43:07.483Z,95503.56
2023-03-14T01:44:11.751Z,95495.44
2023-03-14T01:45:46.701Z,95511.31
2023-03-14T01:46:49.579Z,95491.97
2023-03-14T01:47:51.216Z,95478.38
2023-03-14T01:49:00.480Z,95473.28
2023-03-14T01:50:04.153Z,95491.91
2023-03-14T01:51:07.185Z,95518.31
2023-03-14T01:52:11.319Z,95496.53
2023-03-14T01:53:12.942Z,95501.59
2023-03-14T01:54:18.355Z,95482.97
2023-03-14T01:55:21.419Z,95464.34
2023-03-14T01:56:25.340Z,95488.00
2023-03-14T01:57:29.158Z,95472.88
2023-03-14T01:58:31.993Z,95493.03
2023-03-14T01:59:33.608Z,95474.41
2023-03-14T02:00:36.241Z,95497.28
2023-03-14T02:01:37.884Z,95479.41
2023-03-14T02:02:40.618Z,95473.16
2023-03-14T02:03:46.722Z,95472.00
2023-03-14T02:04:49.365Z,95460.75
2023-03-14T02:05:51.178Z,95465.38
2023-03-14T02:06:56.611Z,95458.81
2023-03-14T02:07:58.998Z,95464.63
2023-03-14T02:09:01.857Z,95489.53
2023-03-14T02:10:04.710Z,95483.72
2023-03-14T02:11:08.210Z,95474.78
2023-03-14T02:12:12.141Z,95474.78
2023-03-14T02:13:14.212Z,95471.72
2023-03-14T02:14:23.136Z,95470.56
2023-03-14T02:15:24.751Z,95453.84
2023-03-14T02:16:27.396Z,95501.22
2023-03-14T02:17:29.038Z,95474.06
2023-03-14T02:18:31.653Z,95450.34
2023-03-14T02:19:41.138Z,95455.03
2023-03-14T02:20:47.076Z,95470.56
2023-03-14T02:21:50.559Z,95483.81
2023-03-14T02:22:53.203Z,95460.47
2023-03-14T02:24:00.175Z,95463.56
2023-03-14T02:25:06.232Z,95459.28
2023-03-14T02:26:10.125Z,95458.50
2023-03-14T02:27:14.422Z,95490.31
2023-03-14T02:28:16.107Z,95468.50
2023-03-14T02:29:18.695Z,95479.31
2023-03-14T02:30:21.031Z,95473.88
2023-03-14T02:31:23.682Z,95457.16
2023-03-14T02:32:25.740Z,95466.88
2023-03-14T02:33:28.427Z,95447.13
2023-03-14T02:34:30.028Z,95420.72
2023-03-14T02:35:34.861Z,95420.34
2023-03-14T02:36:36.500Z,95443.22
2023-03-14T02:37:40.818Z,95461.06
2023-03-14T02:38:45.203Z,95421.88
2023-03-14T02:39:50.040Z,95438.59
2023-03-14T02:40:51.657Z,95455.69
2023-03-14T02:41:54.248Z,95450.63
2023-03-14T02:42:57.256Z,95430.84
2023-03-14T02:43:59.842Z,95406.00
2023-03-14T02:45:22.401Z,95422.69
2023-03-14T02:46:25.012Z,95433.94
2023-03-14T02:47:28.164Z,95423.81
2023-03-14T02:48:32.426Z,95452.13
2023-03-14T02:49:34.101Z,95426.53
2023-03-14T02:50:36.697Z,95418.38
2023-03-14T02:51:38.648Z,95409.06
2023-03-14T02:52:41.258Z,95427.69
2023-03-14T02:53:43.677Z,95422.63
2023-03-14T02:54:46.298Z,95409.44
2023-03-14T02:55:48.132Z,95434.66
2023-03-14T02:56:50.773Z,95404.41
2023-03-14T02:57:52.412Z,95396.66
2023-03-14T02:58:58.588Z,95407.50
2023-03-14T03:00:00.757Z,95402.09
2023-03-14T03:01:03.439Z,95386.56
2023-03-14T03:02:05.083Z,95386.16
2023-03-14T03:03:07.714Z,95403.97
2023-03-14T03:04:09.379Z,95395.84
2023-03-14T03:05:11.980Z,95409.84
2023-03-14T03:06:13.693Z,95370.25
2023-03-14T03:07:16.290Z,95384.59
2023-03-14T03:08:18.090Z,95383.84
2023-03-14T03:09:20.692Z,95404.03
2023-03-14T03:10:22.333Z,95441.28
2023-03-14T03:11:24.972Z,95363.69
2023-03-14T03:12:26.604Z,95412.94
2023-03-14T03:13:29.217Z,95419.16
2023-03-14T03:14:32.243Z,95398.97
2023-03-14T03:15:34.959Z,95403.22
2023-03-14T03:16:36.677Z,95379.97
2023-03-14T03:17:39.407Z,95379.59
2023-03-14T03:18:41.041Z,95408.31
2023-03-14T03:19:43.660Z,95350.88
2023-03-14T03:20:45.322Z,95388.91
2023-03-14T03:21:48.012Z,95401.72
2023-03-14T03:22:50.782Z,95392.41
2023-03-14T03:23:53.429Z,95399.41
2023-03-14T03:24:55.061Z,95396.31
2023-03-14T03:25:57.667Z,95431.22
2023-03-14T03:26:59.321Z,95409.09
2023-03-14T03:28:02.060Z,95428.88
2023-03-14T03:29:03.699Z,95385.78
2023-03-14T03:30:08.576Z,95408.69
2023-03-14T03:31:10.795Z,95430.44
2023-03-14T03:32:13.504Z,95414.53
2023-03-14T03:33:15.306Z,95422.34
2023-03-14T03:34:17.940Z,95444.06
2023-03-14T03:35:19.659Z,95441.72
2023-03-14T03:36:23.059Z,95426.97
2023-03-14T03:37:25.156Z,95432.81
2023-03-14T03:38:27.768Z,95437.44
2023-03-14T03:39:29.395Z,95442.91
2023-03-14T03:40:32.238Z,95420.78
2023-03-14T03:41:33.878Z,95430.88
2023-03-14T03:42:36.780Z,95430.09
2023-03-14T03:43:38.420Z,95445.59
2023-03-14T03:44:41.041Z,95451.41
2023-03-14T03:45:44.058Z,95414.56
2023-03-14T03:46:46.739Z,95432.03
2023-03-14T03:47:48.679Z,95418.03
2023-03-14T03:48:55.847Z,95423.88
2023-03-14T03:49:57.472Z,95406.78
2023-03-14T03:51:00.095Z,95428.91
2023-03-14T03:52:01.728Z,95378.47
2023-03-14T03:53:04.414Z,95410.28
2023-03-14T03:54:06.046Z,95449.88
2023-03-14T03:55:09.462Z,95412.59
2023-03-14T03:56:12.136Z,95414.53
2023-03-14T03:57:13.818Z,95400.56
2023-03-14T03:58:16.692Z,95421.13
2023-03-14T03:59:18.365Z,95419.59
2023-03-14T04:00:21.199Z,95375.72
2023-03-14T04:01:24.176Z,95420.72
2023-03-14T04:02:27.047Z,95430.84
2023-03-14T04:03:30.087Z,95420.34
2023-03-14T04:04:31.919Z,95426.16
2023-03-14T04:05:35.425Z,95408.31
2023-03-14T04:06:38.001Z,95422.69
2023-03-14T04:07:40.613Z,95403.69
2023-03-14T04:08:42.420Z,95411.03
2023-03-14T04:09:45.038Z,95412.22
2023-03-14T04:10:46.671Z,95425.78
2023-03-14T04:11:49.276Z,95410.25
2023-03-14T04:12:50.908Z,95463.03
2023-03-14T04:13:53.564Z,95407.94
2023-03-14T04:14:55.198Z,95402.91
2023-03-14T04:15:57.894Z,95406.00
2023-03-14T04:17:00.926Z,95397.47
2023-03-14T04:18:03.543Z,95405.22
2023-03-14T04:19:05.245Z,95397.47
2023-03-14T04:20:11.646Z,95399.00
2023-03-14T04:21:13.359Z,95406.38
2023-03-14T04:22:15.951Z,95413.38
2023-03-14T04:23:17.596Z,95407.56
2023-03-14T04:24:20.258Z,95382.31
2023-03-14T04:25:21.995Z,95370.31
2023-03-14T04:26:24.629Z,95369.53
2023-03-14T04:27:26.259Z,95391.63
2023-03-14T04:28:28.886Z,95404.84
2023-03-14T04:29:30.743Z,95404.06
2023-03-14T04:30:33.346Z,95382.34
2023-03-14T04:31:35.083Z,95383.50
2023-03-14T04:32:40.786Z,95389.72
2023-03-14T04:33:44.877Z,95375.34
2023-03-14T04:34:48.325Z,95386.22
2023-03-14T04:35:51.140Z,95389.34
2023-03-14T04:36:53.855Z,95393.59
2023-03-14T04:37:55.492Z,95379.63
2023-03-14T04:38:58.087Z,95408.72
2023-03-14T04:39:59.793Z,95381.97
2023-03-14T04:41:02.552Z,95389.72
2023-03-14T04:42:04.183Z,95371.06
2023-03-14T04:43:06.778Z,95369.13
2023-03-14T04:44:08.443Z,95411.03
2023-03-14T04:45:11.344Z,95376.13
2023-03-14T04:46:13.007Z,95365.66
2023-03-14T04:47:15.642Z,95385.84
2023-03-14T04:48:18.677Z,95382.75
2023-03-14T04:49:21.276Z,95470.09
2023-03-14T04:50:23.618Z,95366.84
2023-03-14T04:51:28.281Z,95366.44
2023-03-14T04:52:30.048Z,95374.97
2023-03-14T04:53:33.207Z,95374.56
2023-03-14T04:54:34.918Z,95356.34
2023-03-14T04:55:37.601Z,95353.66
2023-03-14T04:56:39.407Z,95355.19
2023-03-14T04:57:42.032Z,95362.94
2023-03-14T04:58:44.983Z,95348.59
2023-03-14T04:59:47.662Z,95378.88
2023-03-14T05:00:49.348Z,95371.13
2023-03-14T05:01:52.005Z,95342.00
2023-03-14T05:02:53.740Z,95357.53
2023-03-14T05:03:57.743Z,95360.63
2023-03-14T05:04:59.408Z,95356.75
2023-03-14T05:06:02.121Z,95354.81
2023-03-14T05:07:03.774Z,95381.59
2023-03-14T05:08:06.511Z,95372.28
2023-03-14T05:09:09.162Z,95357.91
2023-03-14T05:10:11.621Z,95321.81
2023-03-14T05:11:14.338Z,95361.41
2023-03-14T05:12:15.974Z,95369.56
2023-03-14T05:13:18.592Z,95377.72
2023-03-14T05:14:20.226Z,95340.44
2023-03-14T05:15:22.851Z,95324.53
2023-03-14T05:16:24.591Z,95347.41
2023-03-14T05:17:27.297Z,95373.81
2023-03-14T05:18:28.922Z,95333.47
2023-03-14T05:19:34.969Z,95367.59
2023-03-14T05:20:37.684Z,95339.66
2023-03-14T05:21:40.321Z,95374.59
2023-03-14T05:22:41.953Z,95347.06
2023-03-14T05:23:44.554Z,95337.72
2023-03-14T05:24:46.187Z,95362.19
2023-03-14T05:25:48.860Z,95308.22
2023-03-14T05:26:50.571Z,95338.91
2023-03-14T05:27:55.583Z,95352.84
2023-03-14T05:28:57.233Z,95357.13
2023-03-14T05:29:59.851Z,95319.09
2023-03-14T05:31:01.493Z,95343.94
2023-03-14T05:32:04.254Z,95383.53
2023-03-14T05:33:05.872Z,95373.03
2023-03-14T05:34:08.485Z,95376.16
2023-03-14T05:35:11.486Z,95348.22
2023-03-14T05:36:14.111Z,95376.94
2023-03-14T05:37:15.827Z,95363.72
2023-03-14T05:38:19.298Z,95362.56
2023-03-14T05:39:20.922Z,95356.38
2023-03-14T05:40:23.511Z,95307.44
2023-03-14T05:41:25.139Z,95334.63
2023-03-14T05:42:27.931Z,95324.13
2023-03-14T05:43:29.567Z,95303.13
2023-03-14T05:44:32.172Z,95309.66
2023-03-14T05:45:35.526Z,95320.13
2023-03-14T05:46:38.330Z,95302.28
2023-03-14T05:47:40.010Z,95311.59
2023-03-14T05:48:42.622Z,95260.75
2023-03-14T05:49:44.235Z,95301.38
2023-03-14T05:50:48.208Z,95315.78
2023-03-14T05:51:49.835Z,95337.50
2023-03-14T05:52:52.468Z,95313.16
2023-03-14T05:53:54.105Z,95356.19
2023-03-14T05:54:56.705Z,95326.72
2023-03-14T05:55:58.474Z,95297.97
2023-03-14T05:57:01.095Z,95306.84
2023-03-14T05:58:02.754Z,95305.66
2023-03-14T05:59:05.381Z,95301.81
2023-03-14T06:00:08.357Z,95259.22
2023-03-14T06:01:11.013Z,95254.19
2023-03-14T06:02:12.707Z,95282.47
2023-03-14T06:03:15.579Z,95283.66
2023-03-14T06:04:17.275Z,95295.31
2023-03-14T06:05:19.951Z,95313.94
2023-03-14T06:06:22.944Z,95297.66
2023-03-14T06:07:25.649Z,95277.47
2023-03-14T06:08:27.327Z,95262.75
2023-03-14T06:09:29.931Z,95276.69
2023-03-14T06:10:31.623Z,95287.53
2023-03-14T06:11:34.236Z,95264.25
2023-03-14T06:12:35.895Z,95282.84
2023-03-14T06:13:38.518Z,95290.97
2023-03-14T06:14:41.128Z,95287.03
2023-03-14T06:15:42.807Z,95282.78
2023-03-14T06:16:45.489Z,95283.22
2023-03-14T06:17:47.186Z,95266.53
2023-03-14T06:18:50.043Z,95296.38
2023-03-14T06:19:51.696Z,95294.41
2023-03-14T06:20:55.711Z,95246.69
2023-03-14T06:21:58.691Z,95280.72
2023-03-14T06:23:01.364Z,95297.41
2023-03-14T06:24:04.547Z,95274.53
2023-03-14T06:25:06.535Z,95275.69
2023-03-14T06:26:09.185Z,95261.00
2023-03-14T06:27:10.910Z,95263.38
2023-03-14T06:28:13.587Z,95282.03
2023-03-14T06:29:15.259Z,95274.34
2023-03-14T06:30:18.671Z,95264.28
2023-03-14T06:31:21.473Z,95251.84
2023-03-14T06:32:23.322Z,95277.81
2023-03-14T06:33:26.105Z,95303.41
2023-03-14T06:34:27.724Z,95300.34
2023-03-14T06:35:30.304Z,95313.16
2023-03-14T06:36:32.003Z,95291.81
2023-03-14T06:37:35.994Z,95336.41
2023-03-14T06:38:37.760Z,95273.97
2023-03-14T06:39:40.532Z,95298.38
2023-03-14T06:40:42.151Z,95299.94
2023-03-14T06:41:44.761Z,95274.72
2023-03-14T06:42:46.388Z,95302.25
2023-03-14T06:43:49.062Z,95318.56
2023-03-14T06:44:51.674Z,95279.81
2023-03-14T06:45:53.387Z,95314.69
2023-03-14T06:46:56.040Z,95311.97
2023-03-14T06:47:57.672Z,95305.00
2023-03-14T06:49:00.294Z,95285.25
2023-03-14T06:50:01.921Z,95294.16
2023-03-14T06:51:04.826Z,95290.69
2023-03-14T06:52:06.448Z,95297.28
2023-03-14T06:53:10.471Z,95319.00
2023-03-14T06:54:13.466Z,95314.00
2023-03-14T06:55:15.249Z,95305.47
2023-03-14T06:56:17.850Z,95302.34
2023-03-14T06:57:19.508Z,95295.75
2023-03-14T06:58:22.133Z,95314.75
2023-03-14T06:59:25.298Z,95290.31
2023-03-14T07:00:27.163Z,95300.41
2023-03-14T07:01:30.436Z,95358.19
2023-03-14T07:02:42.191Z,95274.41
2023-03-14T07:03:45.756Z,95292.25
2023-03-14T07:04:47.492Z,95302.28
2023-03-14T07:05:50.156Z,95279.81
2023-03-14T07:06:52.759Z,95285.63
2023-03-14T07:07:54.371Z,95299.59
2023-03-14T07:08:58.365Z,95294.53
2023-03-14T07:10:01.075Z,95289.81
2023-03-14T07:11:03.658Z,95301.41
2023-03-14T07:12:06.122Z,95301.81
2023-03-14T07:13:08.735Z,95278.94
2023-03-14T07:14:10.365Z,95295.22
2023-03-14T07:16:35.591Z,95279.75
2023-03-14T07:17:37.323Z,95293.72
2023-03-14T07:18:39.951Z,95316.97
2023-03-14T07:19:42.620Z,95299.91
2023-03-14T07:20:46.259Z,95323.19
2023-03-14T07:21:48.860Z,95278.56
2023-03-14T07:22:50.676Z,95293.25
2023-03-14T07:23:53.289Z,95286.69
2023-03-14T07:24:56.252Z,95295.22
2023-03-14T07:25:58.884Z,95302.91
2023-03-14T07:27:00.513Z,95302.88
2023-03-14T07:28:03.100Z,95296.75
2023-03-14T07:29:05.706Z,95270.03
2023-03-14T07:30:08.646Z,95296.41
2023-03-14T07:31:11.376Z,95279.75
2023-03-14T07:32:15.663Z,95286.34
2023-03-14T07:33:18.272Z,95284.06
2023-03-14T07:34:21.386Z,95287.53
2023-03-14T07:35:22.999Z,95296.41
2023-03-14T07:36:25.646Z,95295.19
2023-03-14T07:37:27.271Z,95282.41
2023-03-14T07:38:29.865Z,95281.19
2023-03-14T07:39:31.652Z,95269.91
2023-03-14T07:40:35.588Z,95285.03
2023-03-14T07:41:37.246Z,95294.31
2023-03-14T07:42:39.847Z,95277.25
2023-03-14T07:43:41.517Z,95275.28
2023-03-14T07:44:44.121Z,95265.59
2023-03-14T07:45:50.738Z,95274.91
2023-03-14T07:46:53.867Z,95272.19
2023-03-14T07:47:58.306Z,95272.25
2023-03-14T07:49:00.924Z,95272.66
2023-03-14T07:50:02.599Z,95264.13
2023-03-14T07:51:05.470Z,95263.34
2023-03-14T07:52:07.137Z,95274.63
2023-03-14T07:53:09.717Z,95264.88
2023-03-14T07:54:12.340Z,95269.94
2023-03-14T07:55:14.569Z,95265.34
2023-03-14T07:56:18.517Z,95244.44
2023-03-14T07:57:20.236Z,95266.50
2023-03-14T07:58:23.731Z,95251.44
2023-03-14T07:59:26.337Z,95270.06
2023-03-14T08:00:28.365Z,95284.81
2023-03-14T08:01:30.968Z,95281.34
2023-03-14T08:02:32.709Z,95266.22
2023-03-14T08:03:35.406Z,95277.50
2023-03-14T08:04:38.065Z,95281.38
2023-03-14T08:05:39.732Z,95296.13
2023-03-14T08:06:42.353Z,95293.00
2023-03-14T08:07:45.022Z,95292.22
2023-03-14T08:08:46.626Z,95303.41
2023-03-14T08:09:49.226Z,95300.75
2023-03-14T08:10:50.860Z,95289.91
2023-03-14T08:11:54.977Z,95287.19
2023-03-14T08:12:57.614Z,95269.72
2023-03-14T08:14:00.216Z,95300.75
2023-03-14T08:15:01.964Z,95292.22
2023-03-14T08:16:05.254Z,95293.41
2023-03-14T08:17:09.077Z,95298.06
2023-03-14T08:18:11.724Z,95297.66
2023-03-14T08:19:14.332Z,95290.69
2023-03-14T08:20:16.229Z,95291.44
2023-03-14T08:21:18.828Z,95304.59
2023-03-14T08:22:20.509Z,95292.19
2023-03-14T08:23:23.175Z,95304.97
2023-03-14T08:24:24.803Z,95294.50
2023-03-14T08:25:27.542Z,95287.16
2023-03-14T08:26:29.314Z,95295.69
2023-03-14T08:27:33.250Z,95294.50
2023-03-14T08:28:34.926Z,95288.72
2023-03-14T08:29:37.673Z,95303.09
2023-03-14T08:30:40.319Z,95293.03
2023-03-14T08:31:42.027Z,95297.31
2023-03-14T08:32:44.696Z,95297.28
2023-03-14T08:33:47.346Z,95305.06
2023-03-14T08:34:49.145Z,95292.25
2023-03-14T08:35:53.873Z,95302.34
2023-03-14T08:36:57.755Z,95304.31
2023-03-14T08:37:59.370Z,95300.03
2023-03-14T08:39:02.069Z,95300.44
2023-03-14T08:40:07.204Z,95312.84
2023-03-14T08:41:10.271Z,95310.53
2023-03-14T08:42:12.923Z,95296.97
2023-03-14T08:43:16.871Z,95320.25
2023-03-14T08:44:20.925Z,95311.72
2023-03-14T08:45:22.707Z,95288.78
2023-03-14T08:46:25.358Z,95297.34
2023-03-14T08:47:28.528Z,95298.13
2023-03-14T08:48:31.418Z,95304.34
2023-03-14T08:49:33.364Z,95304.34
2023-03-14T08:50:36.025Z,95325.28
2023-03-14T08:51:37.679Z,95309.78
2023-03-14T08:52:41.210Z,95333.84
2023-03-14T08:53:42.898Z,95326.50
2023-03-14T08:54:45.939Z,95322.22
2023-03-14T08:55:48.546Z,95317.13
2023-03-14T08:56:50.197Z,95322.22
2023-03-14T08:57:52.841Z,95334.25
2023-03-14T08:58:55.843Z,95324.13
2023-03-14T08:59:58.977Z,95328.78
2023-03-14T09:01:01.615Z,95310.94
2023-03-14T09:02:04.455Z,95323.72
2023-03-14T09:03:07.169Z,95327.25
2023-03-14T09:04:08.921Z,95311.69
2023-03-14T09:05:12.121Z,95316.75
2023-03-14T09:06:14.716Z,95311.28
2023-03-14T09:07:16.345Z,95304.28
2023-03-14T09:08:18.956Z,95305.84
2023-03-14T09:09:21.560Z,95284.50
2023-03-14T09:10:23.368Z,95290.28
2023-03-14T09:11:26.063Z,95293.38
2023-03-14T09:12:27.937Z,95287.56
2023-03-14T09:13:30.542Z,95282.53
2023-03-14T09:14:33.595Z,95278.28
2023-03-14T09:15:36.283Z,95273.22
2023-03-14T09:16:38.177Z,95273.63
2023-03-14T09:17:40.816Z,95271.31
2023-03-14T09:18:43.440Z,95275.19
2023-03-14T09:19:45.057Z,95273.66
2023-03-14T09:20:47.747Z,95271.34
2023-03-14T09:21:49.663Z,95279.09
2023-03-14T09:22:52.296Z,95282.19
2023-03-14T09:23:54.923Z,95277.16
2023-03-14T09:24:57.524Z,95277.16
2023-03-14T09:25:59.701Z,95289.19
2023-03-14T09:27:02.959Z,95291.53
2023-03-14T09:28:05.843Z,95293.06
2023-03-14T09:29:08.712Z,95286.84
2023-03-14T09:30:12.780Z,95285.28
2023-03-14T09:31:16.125Z,95297.72
2023-03-14T09:32:17.853Z,95291.09
2023-03-14T09:33:20.714Z,95301.97
2023-03-14T09:34:22.357Z,95310.53
2023-03-14T09:35:25.041Z,95315.97
2023-03-14T09:36:26.761Z,95316.34
2023-03-14T09:37:29.379Z,95322.94
2023-03-14T09:38:32.073Z,95306.19
2023-03-14T09:39:34.677Z,95310.47
2023-03-14T09:40:36.715Z,95321.38
2023-03-14T09:41:39.934Z,95329.16
2023-03-14T09:42:41.754Z,95338.09
2023-03-14T09:43:44.405Z,95324.50
2023-03-14T09:44:53.343Z,95324.13
2023-03-14T09:45:56.462Z,95331.91
2023-03-14T09:47:00.693Z,95332.69
2023-03-14T09:48:02.744Z,95324.91
2023-03-14T09:49:07.193Z,95332.28
2023-03-14T09:50:12.180Z,95321.03
2023-03-14T09:51:16.266Z,95320.25
2023-03-14T09:52:19.131Z,95325.69
2023-03-14T09:53:23.735Z,95330.34
2023-03-14T09:54:32.459Z,95356.34
2023-03-14T09:55:36.700Z,95324.91
2023-03-14T09:56:38.462Z,95335.38
2023-03-14T09:57:41.101Z,95328.78
2023-03-14T09:58:44.287Z,95326.09
2023-03-14T09:59:48.093Z,95318.69
2023-03-14T10:00:50.277Z,95326.44
2023-03-14T10:01:54.304Z,95317.13
2023-03-14T10:02:58.010Z,95327.56
2023-03-14T10:04:01.826Z,95331.84
2023-03-14T10:05:07.618Z,95334.19
2023-03-14T10:06:12.153Z,95330.72
2023-03-14T10:07:16.441Z,95329.94
2023-03-14T10:08:18.340Z,95340.06
2023-03-14T10:09:25.964Z,95319.88
2023-03-14T10:10:28.628Z,95328.81
2023-03-14T10:11:30.267Z,95332.31
2023-03-14T10:12:33.037Z,95334.63
2023-03-14T10:13:35.669Z,95328.78
2023-03-14T10:14:38.107Z,95322.94
2023-03-14T10:15:40.868Z,95328.75
2023-03-14T10:16:43.852Z,95327.56
2023-03-14T10:17:49.606Z,95323.28
2023-03-14T10:18:51.345Z,95319.44
2023-03-14T10:19:55.635Z,95314.34
2023-03-14T10:21:08.761Z,95304.28
2023-03-14T10:22:14.140Z,95303.88
2023-03-14T10:23:26.759Z,95328.72
2023-03-14T10:24:30.824Z,95326.78
2023-03-14T10:25:33.839Z,95322.50
2023-03-14T10:26:36.570Z,95329.50
2023-03-14T10:27:39.208Z,95329.91
2023-03-14T10:28:44.024Z,95329.91
2023-03-14T10:29:54.373Z,95326.03
2023-03-14T10:30:56.210Z,95333.38
2023-03-14T10:32:01.866Z,95335.72
2023-03-14T10:33:10.949Z,95327.19
2023-03-14T10:34:17.386Z,95332.63
2023-03-14T10:35:21.142Z,95336.88
2023-03-14T10:36:26.775Z,95353.59
2023-03-14T10:37:28.568Z,95338.06
2023-03-14T10:38:32.026Z,95357.84
2023-03-14T10:39:40.049Z,95359.03
2023-03-14T10:40:43.586Z,95346.63
2023-03-14T10:41:48.762Z,95357.91
2023-03-14T10:42:52.910Z,95360.63
2023-03-14T10:43:56.406Z,95353.22
2023-03-14T10:44:59.643Z,95357.13
2023-03-14T10:46:03.824Z,95368.00
2023-03-14T10:47:05.539Z,95367.22
2023-03-14T10:48:20.091Z,95378.47
2023-03-14T10:49:28.124Z,95371.88
2023-03-14T10:50:31.675Z,95383.13
2023-03-14T10:51:34.442Z,95378.47
2023-03-14T10:52:51.323Z,95383.13
2023-03-14T10:54:00.856Z,95365.66
2023-03-14T10:55:04.472Z,95370.31
2023-03-14T10:56:06.771Z,95386.53
2023-03-14T10:57:09.470Z,95366.94
2023-03-14T10:58:24.586Z,95433.16
2023-03-14T10:59:27.259Z,95418.25
2023-03-14T11:00:34.097Z,95420.63
2023-03-14T11:01:40.407Z,95432.03
2023-03-14T11:02:49.426Z,95463.09
2023-03-14T11:03:56.090Z,95444.84
2023-03-14T11:05:05.570Z,95472.06
2023-03-14T11:06:09.081Z,95474.41
2023-03-14T11:07:13.717Z,95495.78
2023-03-14T11:08:19.612Z,95488.38
2023-03-14T11:09:24.054Z,95496.84
2023-03-14T11:10:28.254Z,95500.78
2023-03-14T11:11:30.552Z,95508.09
2023-03-14T11:12:40.379Z,95530.25
2023-03-14T11:13:46.474Z,95527.69
2023-03-14T11:14:49.245Z,95533.94
2023-03-14T11:15:56.248Z,95520.59
2023-03-14T11:17:01.095Z,95553.25
2023-03-14T11:18:21.789Z,95540.63
2023-03-14T11:19:53.706Z,95542.94
2023-03-14T11:20:58.154Z,95566.19
2023-03-14T11:22:01.009Z,95568.97
2023-03-14T11:23:06.227Z,95570.13
2023-03-14T11:24:21.513Z,95575.13
2023-03-14T11:25:26.974Z,95564.72
2023-03-14T11:26:31.707Z,95565.69
2023-03-14T11:27:40.314Z,95581.31
2023-03-14T11:28:44.847Z,95556.09
2023-03-14T11:29:53.548Z,95565.44
2023-03-14T11:30:57.035Z,95602.56
2023-03-14T11:32:01.082Z,95588.94
2023-03-14T11:33:04.615Z,95584.59
2023-03-14T11:34:10.068Z,95604.41
2023-03-14T11:35:18.097Z,95611.94
2023-03-14T11:36:22.485Z,95598.66
2023-03-14T11:37:26.328Z,95568.00
2023-03-14T11:38:31.997Z,95605.59
2023-03-14T11:39:38.596Z,95619.94
2023-03-14T11:40:41.312Z,95617.88
2023-03-14T11:41:44.227Z,95615.22
2023-03-14T11:42:49.990Z,95598.53
2023-03-14T11:43:55.402Z,95624.00
2023-03-14T11:44:57.078Z,95629.41
2023-03-14T11:46:03.687Z,95637.50
2023-03-14T11:47:08.625Z,95643.34
2023-03-14T11:48:25.831Z,95643.41
2023-03-14T11:49:33.247Z,95652.53
2023-03-14T11:50:37.285Z,95626.22
2023-03-14T11:51:40.849Z,95646.09
2023-03-14T11:52:44.556Z,95650.16
2023-03-14T11:53:53.068Z,95655.31
2023-03-14T11:54:57.179Z,95674.72
2023-03-14T11:55:59.758Z,95667.66
2023-03-14T11:57:03.602Z,95676.44
2023-03-14T11:58:13.453Z,95670.59
2023-03-14T11:59:16.946Z,95671.09
2023-03-14T12:00:20.569Z,95652.31
2023-03-14T12:01:23.203Z,95679.47
2023-03-14T12:02:29.471Z,95683.56
2023-03-14T12:03:36.538Z,95672.34
2023-03-14T12:04:47.450Z,95669.38
2023-03-14T12:05:57.605Z,95687.97
2023-03-14T12:07:00.224Z,95675.84
2023-03-14T12:08:38.295Z,95694.66
2023-03-14T12:09:41.063Z,95695.03
2023-03-14T12:10:44.153Z,95684.59
2023-03-14T12:11:48.689Z,95687.25
2023-03-14T12:12:50.446Z,95684.59
2023-03-14T12:13:53.639Z,95686.16
2023-03-14T12:14:56.404Z,95698.94
2023-03-14T12:16:00.511Z,95700.56
2023-03-14T12:17:07.288Z,95693.34
2023-03-14T12:18:18.195Z,95698.22
2023-03-14T12:19:39.831Z,95701.25
2023-03-14T12:20:41.514Z,95686.16
2023-03-14T12:21:51.395Z,95699.28
2023-03-14T12:22:54.879Z,95703.50
2023-03-14T12:23:57.214Z,95695.66
2023-03-14T12:25:15.851Z,95705.72
2023-03-14T12:26:19.852Z,95709.22